Terminal Aerodrome Forecast
Issued by NWS

Home | Current Version | Previous Version | Text Only | Print | Product List | Glossary On
Versions: 1 2 3 4 5 6 7 8 9 10 11 12 13 14
000
FTUS43 KTOP 301600 AAA
TAFFOE
TAF AMD
KFOE 301617Z 3016/3112 33013KT P6SM FEW100
     FM301700 33014G22KT P6SM SKC
     FM302300 33010KT P6SM SKC
     FM310700 36014KT P6SM SCT012=

USA.gov is the U.S. government's official web portal to all federal, state and local government web resources and services.